»·PEaware :: XACAM KOXR-KLAS

XACAM :: KOXR-KLAS

FLIGHT INFORMATION

Flight Status: Arrived
Operator: Unknown
More flights by this operator :: More flights under this callsign
Pilot: Rafael C. (24230)
Aircraft: BOEING 737-600
(B736)
More flights by this aircraft type
Origin: KOXR Oxnard
United States
Destination: KLAS Harry Reid Intl
United States
More flights between these airports :: More routes between these airports
Route: CMA6 FIM MISEN RNDRZ2
File this flight plan on PilotEdge
Remarks:
Altitude:
(Current/Filed)
31,000ft
Speed:
(Current/Filed)
450kts
Departed: 16-Jul-23 02:44 PM
Arrived: 16-Jul-23 03:33 PM
Distance/Time
Traveled:
228nm/0:49
Distance/Time
To Go:
Arrived

Flight Plot

Page will automatically refresh every two minutes.

Flight plan parsing failed; only flown route is shown


Map Options




Map Legend


Flown Route
Filed Route
Departure Airport
Arrival Airport
Navaid (VOR, NDB)
Fix

Horizontal Profiles

Position Reports

Time Latitude Longitude Heading Altitude Ground
Speed
16-Jul-23 14:16 34.199383 -119.205797 180 51ft 0kts
16-Jul-23 14:17 34.199383 -119.205797 180 51ft 0kts
16-Jul-23 14:18 34.199383 -119.205797 180 51ft 0kts
16-Jul-23 14:18 34.199383 -119.205797 180 51ft 0kts
16-Jul-23 14:20 34.199383 -119.205797 180 51ft 0kts
16-Jul-23 14:21 34.199383 -119.205797 180 51ft 0kts
16-Jul-23 14:22 34.199383 -119.205797 180 51ft 0kts
16-Jul-23 14:22 34.199383 -119.205797 180 51ft 0kts
16-Jul-23 14:23 34.199383 -119.205797 180 51ft 0kts
16-Jul-23 14:25 34.199383 -119.205797 180 51ft 0kts
16-Jul-23 14:26 34.199383 -119.205797 180 51ft 0kts
16-Jul-23 14:26 34.199383 -119.205797 180 51ft 0kts
16-Jul-23 14:27 34.199383 -119.205797 180 51ft 0kts
16-Jul-23 14:28 34.199383 -119.205797 180 51ft 0kts
16-Jul-23 14:30 34.199383 -119.205797 180 51ft 0kts
16-Jul-23 14:30 34.199383 -119.205797 180 51ft 0kts
16-Jul-23 14:31 34.199383 -119.205797 180 51ft 0kts
16-Jul-23 14:32 34.199383 -119.205797 180 51ft 0kts
16-Jul-23 14:33 34.199383 -119.205797 180 51ft 0kts
16-Jul-23 14:34 34.199383 -119.205797 180 51ft 0kts
16-Jul-23 14:35 34.199383 -119.205797 180 51ft 0kts
16-Jul-23 14:36 34.199383 -119.205797 180 51ft 0kts
16-Jul-23 14:37 34.199383 -119.205797 180 51ft 0kts
16-Jul-23 14:38 34.199383 -119.205797 180 51ft 0kts
16-Jul-23 14:39 34.199377 -119.205797 180 51ft 1kts
16-Jul-23 14:40 34.199787 -119.204164 90 51ft 22kts
16-Jul-23 14:41 34.199785 -119.197719 63 48ft 6kts
16-Jul-23 14:42 34.199897 -119.197586 29 47ft 0kts
16-Jul-23 14:43 34.200774 -119.203002 270 52ft 95kts
16-Jul-23 14:44 34.213560 -119.240628 8 2048ft 165kts
16-Jul-23 14:45 34.208709 -119.181788 127 3142ft 266kts
16-Jul-23 14:46 34.211591 -119.093683 78 6059ft 277kts
16-Jul-23 14:47 34.216805 -119.000660 84 6984ft 282kts
16-Jul-23 14:48 34.274683 -118.938333 31 8931ft 295kts
16-Jul-23 14:49 34.350095 -118.883539 45 11525ft 340kts
16-Jul-23 14:50 34.389027 -118.779708 71 14952ft 347kts
16-Jul-23 14:51 34.423187 -118.668966 70 18387ft 356kts
16-Jul-23 14:52 34.458999 -118.553586 70 20987ft 376kts
16-Jul-23 14:53 34.496517 -118.432445 70 23540ft 394kts
16-Jul-23 14:54 34.535782 -118.305183 70 25614ft 412kts
16-Jul-23 14:55 34.576268 -118.173363 70 28051ft 420kts
16-Jul-23 14:56 34.617083 -118.039928 70 30677ft 424kts
16-Jul-23 14:57 34.657969 -117.905623 70 30989ft 423kts
16-Jul-23 14:58 34.698560 -117.771655 70 30922ft 423kts
16-Jul-23 14:59 34.739107 -117.637212 70 30899ft 423kts
16-Jul-23 15:00 34.779406 -117.502973 70 30859ft 423kts
16-Jul-23 15:01 34.819704 -117.368109 70 30838ft 424kts
16-Jul-23 15:02 34.859951 -117.232791 70 30840ft 425kts
16-Jul-23 15:03 34.900064 -117.097277 70 30864ft 425kts
16-Jul-23 15:04 34.939964 -116.961843 70 30895ft 425kts
16-Jul-23 15:05 34.979794 -116.826001 70 30544ft 429kts
16-Jul-23 15:06 35.019397 -116.690297 70 28240ft 418kts
16-Jul-23 15:07 35.057394 -116.559460 70 26268ft 401kts
16-Jul-23 15:08 35.093853 -116.433376 70 24365ft 387kts
16-Jul-23 15:09 35.156723 -116.333015 46 22750ft 367kts
16-Jul-23 15:10 35.225991 -116.244039 47 21366ft 355kts
16-Jul-23 15:11 35.291432 -116.154467 49 20117ft 355kts
16-Jul-23 15:12 35.356588 -116.065049 49 18815ft 350kts
16-Jul-23 15:13 35.420363 -115.977316 49 17478ft 336kts
16-Jul-23 15:14 35.481502 -115.892962 49 16261ft 328kts
16-Jul-23 15:15 35.542328 -115.808851 49 15063ft 330kts
16-Jul-23 15:16 35.601462 -115.723191 59 13828ft 320kts
16-Jul-23 15:17 35.644927 -115.630902 60 12634ft 306kts
16-Jul-23 15:18 35.688135 -115.541372 59 11519ft 304kts
16-Jul-23 15:19 35.731589 -115.451611 59 10389ft 306kts
16-Jul-23 15:20 35.793989 -115.391521 16 9265ft 291kts
16-Jul-23 15:21 35.869646 -115.362849 17 8182ft 279kts
16-Jul-23 15:22 35.926171 -115.308325 51 7449ft 256kts
16-Jul-23 15:23 35.970428 -115.242412 51 7056ft 243kts
16-Jul-23 15:24 36.013565 -115.177959 51 7058ft 247kts
16-Jul-23 15:25 36.059974 -115.115629 24 6947ft 243kts
16-Jul-23 15:26 36.114359 -115.082645 29 6245ft 200kts
16-Jul-23 15:27 36.162492 -115.050069 30 4743ft 194kts
16-Jul-23 15:28 36.205891 -115.054343 273 3261ft 196kts
16-Jul-23 15:29 36.177447 -115.108348 223 2972ft 194kts
16-Jul-23 15:30 36.137133 -115.134859 202 2985ft 137kts
16-Jul-23 15:31 36.103287 -115.154442 202 2270ft 128kts
16-Jul-23 15:32 36.082470 -115.166342 222 2169ft 15kts
16-Jul-23 15:33 36.082434 -115.167416 294 2172ft 0kts
16-Jul-23 15:34 36.081545 -115.169372 234 2184ft 14kts
16-Jul-23 15:35 36.080945 -115.170521 179 2184ft 0kts
16-Jul-23 15:36 36.080945 -115.170521 179 2184ft 0kts
16-Jul-23 15:37 36.080945 -115.170521 179 2184ft 0kts
16-Jul-23 15:38 36.080945 -115.170521 179 2183ft 0kts
16-Jul-23 15:39 36.080945 -115.170521 179 2183ft 0kts
16-Jul-23 15:40 36.080945 -115.170521 179 2183ft 0kts
16-Jul-23 15:41 36.080945 -115.170521 179 2183ft 0kts
16-Jul-23 15:42 36.080945 -115.170521 179 2183ft 0kts
16-Jul-23 15:43 36.080945 -115.170521 179 2183ft 0kts
16-Jul-23 15:44 36.080945 -115.170521 179 2183ft 0kts
16-Jul-23 15:45 36.080945 -115.170521 179 2183ft 0kts
16-Jul-23 15:46 36.080945 -115.170521 179 2183ft 0kts

Navigation Log

Ident Type
Flight plan parsing failed, navigation log unavailable